Terminal Aerodrome Forecast
Issued by NWS

Home | Current Version | Previous Version | Text Only | Print | Product List | Glossary Off
Versions: 1 2 3 4 5 6 7 8 9 10 11 12 13 14 15

000
FTUS43 KICT 190500
TAFRSL
TAF
KRSL 190520Z 1906/2006 14012KT P6SM SKC
     FM191100 17010KT P6SM SCT010
     FM191500 20015G23KT P6SM SKC
     FM200100 17012KT P6SM SCT250=

USA.gov is the U.S. government's official web portal to all federal, state and local government web resources and services.